createdAt,value
2022-11-28T00:01:24.561Z,6.65
2022-11-28T00:03:52.424Z,7.28
2022-11-28T00:06:20.421Z,6.80
2022-11-28T00:08:49.647Z,6.82
2022-11-28T00:11:18.817Z,7.20
2022-11-28T00:13:46.976Z,7.70
2022-11-28T00:16:16.915Z,7.50
2022-11-28T00:18:44.910Z,7.50
2022-11-28T00:21:14.763Z,6.88
2022-11-28T00:23:43.551Z,6.90
2022-11-28T00:26:16.671Z,7.50
2022-11-28T00:28:44.411Z,7.18
2022-11-28T00:31:14.757Z,6.87
2022-11-28T00:33:42.981Z,7.57
2022-11-28T00:36:11.821Z,7.53
2022-11-28T00:38:39.670Z,7.75
2022-11-28T00:41:09.855Z,8.23
2022-11-28T00:43:38.995Z,7.77
2022-11-28T00:46:07.006Z,7.80
2022-11-28T00:48:35.477Z,7.68
2022-11-28T00:51:08.096Z,7.40
2022-11-28T00:53:35.740Z,8.85
2022-11-28T00:56:05.590Z,7.77
2022-11-28T00:58:33.924Z,8.27
2022-11-28T01:01:09.449Z,8.45
2022-11-28T01:03:37.392Z,8.88
2022-11-28T01:06:06.061Z,9.40
2022-11-28T01:08:33.859Z,8.30
2022-11-28T01:11:02.338Z,8.10
2022-11-28T01:13:29.925Z,8.13
2022-11-28T01:15:58.677Z,7.88
2022-11-28T01:18:28.084Z,7.13
2022-11-28T01:20:55.620Z,7.97
2022-11-28T01:23:23.332Z,7.68
2022-11-28T01:25:51.089Z,8.00
2022-11-28T01:28:18.763Z,8.23
2022-11-28T01:30:46.397Z,7.63
2022-11-28T01:33:14.644Z,8.03
2022-11-28T01:35:43.598Z,7.95
2022-11-28T01:38:11.184Z,8.05
2022-11-28T01:40:45.957Z,7.18
2022-11-28T01:43:13.530Z,7.70
2022-11-28T01:45:41.242Z,7.40
2022-11-28T01:48:12.532Z,7.03
2022-11-28T01:50:40.982Z,7.25
2022-11-28T01:53:11.501Z,6.97
2022-11-28T01:55:48.130Z,7.30
2022-11-28T01:58:16.016Z,6.63
2022-11-28T02:00:43.734Z,7.05
2022-11-28T02:03:15.331Z,7.20
2022-11-28T02:05:43.200Z,6.93
2022-11-28T02:08:12.371Z,6.63
2022-11-28T02:11:04.651Z,6.23
2022-11-28T02:13:43.419Z,7.32
2022-11-28T02:16:24.648Z,5.95
2022-11-28T02:19:07.150Z,7.38
2022-11-28T02:21:52.666Z,7.15
2022-11-28T02:24:41.223Z,6.33
2022-11-28T02:27:24.036Z,6.90
2022-11-28T02:30:03.687Z,6.00
2022-11-28T02:32:44.280Z,7.13
2022-11-28T02:35:18.955Z,6.13
2022-11-28T02:37:58.715Z,6.37
2022-11-28T02:40:33.403Z,5.93
2022-11-28T02:43:08.604Z,5.40
2022-11-28T02:45:41.565Z,6.28
2022-11-28T02:48:14.838Z,5.85
2022-11-28T02:50:47.510Z,6.50
2022-11-28T02:53:19.935Z,6.50
2022-11-28T02:55:47.865Z,5.78
2022-11-28T02:58:15.514Z,5.00
2022-11-28T03:00:44.904Z,4.75
2022-11-28T03:03:49.522Z,4.97
2022-11-28T03:06:30.155Z,4.93
2022-11-28T03:09:10.755Z,5.13
2022-11-28T03:11:49.130Z,4.95
2022-11-28T03:14:25.135Z,5.03
2022-11-28T03:17:02.691Z,4.63
2022-11-28T03:19:36.280Z,4.90
2022-11-28T03:22:09.776Z,4.53
2022-11-28T03:24:42.676Z,4.60
2022-11-28T03:27:18.884Z,4.25
2022-11-28T03:29:50.544Z,4.00
2022-11-28T03:35:00.266Z,4.65
2022-11-28T03:37:33.776Z,4.35
2022-11-28T03:40:04.520Z,4.18
2022-11-28T03:42:37.256Z,4.07
2022-11-28T03:45:10.698Z,4.10
2022-11-28T03:47:43.075Z,4.30
2022-11-28T03:50:17.385Z,3.80
2022-11-28T03:52:50.465Z,4.05
2022-11-28T03:55:22.012Z,4.80
2022-11-28T03:57:59.064Z,4.38
2022-11-28T04:00:27.481Z,4.05
2022-11-28T04:03:03.818Z,4.32
2022-11-28T04:05:39.295Z,4.95
2022-11-28T04:08:15.734Z,4.27
2022-11-28T04:10:46.383Z,4.47
2022-11-28T04:13:20.166Z,4.25
2022-11-28T04:15:54.458Z,4.28
2022-11-28T04:18:28.361Z,3.88
2022-11-28T04:21:04.567Z,3.93
2022-11-28T04:23:34.467Z,4.05
2022-11-28T04:26:09.941Z,3.42
2022-11-28T04:28:39.213Z,3.72
2022-11-28T04:31:08.365Z,3.92
2022-11-28T04:33:39.353Z,4.00
2022-11-28T04:36:10.973Z,4.72
2022-11-28T04:38:42.464Z,3.88
2022-11-28T04:41:13.503Z,4.43
2022-11-28T04:43:44.652Z,4.15
2022-11-28T04:46:16.575Z,4.20
2022-11-28T04:48:44.871Z,4.15
2022-11-28T04:51:20.328Z,4.03
2022-11-28T04:53:53.325Z,4.35
2022-11-28T04:56:24.703Z,4.43
2022-11-28T04:58:52.391Z,3.87
2022-11-28T05:01:24.831Z,3.63
2022-11-28T05:03:53.638Z,4.22
2022-11-28T05:06:28.826Z,3.60
2022-11-28T05:08:57.277Z,3.35
2022-11-28T05:11:25.567Z,3.10
2022-11-28T05:13:53.563Z,3.42
2022-11-28T05:16:22.505Z,3.83
2022-11-28T05:18:50.209Z,3.30
2022-11-28T05:21:17.844Z,3.35
2022-11-28T05:23:47.246Z,3.13
2022-11-28T05:26:17.291Z,3.30
2022-11-28T05:28:45.896Z,3.35
2022-11-28T05:31:14.576Z,3.25
2022-11-28T05:33:42.410Z,2.72
2022-11-28T05:36:13.663Z,3.93
2022-11-28T05:38:42.470Z,3.88
2022-11-28T05:41:18.888Z,3.97
2022-11-28T05:43:46.639Z,3.58
2022-11-28T05:46:14.470Z,4.15
2022-11-28T05:48:42.320Z,3.80
2022-11-28T05:51:10.419Z,3.55
2022-11-28T05:53:38.551Z,3.60
2022-11-28T05:56:11.842Z,3.90
2022-11-28T05:58:40.300Z,3.83
2022-11-28T06:01:13.048Z,4.23
2022-11-28T06:03:40.935Z,4.10
2022-11-28T06:06:14.216Z,4.43
2022-11-28T06:08:42.111Z,5.32
2022-11-28T06:11:12.184Z,7.45
2022-11-28T06:13:40.510Z,4.27
2022-11-28T06:16:09.431Z,3.30
2022-11-28T06:18:37.394Z,3.20
2022-11-28T06:21:06.851Z,3.88
2022-11-28T06:23:34.785Z,6.95
2022-11-28T06:26:06.194Z,5.53
2022-11-28T06:28:35.744Z,3.70
2022-11-28T06:31:03.892Z,3.33
2022-11-28T06:33:32.428Z,3.83
2022-11-28T06:36:02.046Z,3.80
2022-11-28T06:38:29.971Z,3.80
2022-11-28T06:40:59.055Z,4.30
2022-11-28T06:43:26.867Z,3.50
2022-11-28T06:45:56.072Z,4.30
2022-11-28T06:48:24.495Z,4.25
2022-11-28T06:50:53.092Z,4.00
2022-11-28T06:53:21.575Z,5.40
2022-11-28T06:55:49.258Z,4.68
2022-11-28T06:58:16.883Z,3.45
2022-11-28T07:00:45.500Z,4.40
2022-11-28T07:03:14.664Z,3.57
2022-11-28T07:05:42.292Z,4.22
2022-11-28T07:08:10.341Z,4.25
2022-11-28T07:10:38.367Z,4.57
2022-11-28T07:13:06.183Z,3.95
2022-11-28T07:15:33.797Z,3.70
2022-11-28T07:18:01.401Z,3.58
2022-11-28T07:20:30.512Z,3.65
2022-11-28T07:22:58.160Z,3.83
2022-11-28T07:25:25.797Z,4.57
2022-11-28T07:27:54.746Z,4.23
2022-11-28T07:30:23.297Z,3.92
2022-11-28T07:32:51.055Z,4.85
2022-11-28T07:35:18.762Z,4.15
2022-11-28T07:37:47.671Z,5.65
2022-11-28T07:40:18.660Z,4.90
2022-11-28T07:42:46.525Z,4.32
2022-11-28T07:45:14.084Z,3.92
2022-11-28T07:47:42.346Z,4.00
2022-11-28T07:50:10.747Z,4.15
2022-11-28T07:52:38.379Z,4.70
2022-11-28T07:55:08.960Z,4.60
2022-11-28T07:57:36.615Z,4.53
2022-11-28T08:00:06.110Z,4.57
2022-11-28T08:02:33.995Z,4.20
2022-11-28T08:05:01.620Z,4.40
2022-11-28T08:07:29.522Z,5.15
2022-11-28T08:09:57.114Z,4.28
2022-11-28T08:12:26.077Z,4.93
2022-11-28T08:14:53.816Z,4.60
2022-11-28T08:17:22.016Z,4.57
2022-11-28T08:19:49.849Z,4.78
2022-11-28T08:22:17.575Z,5.07
2022-11-28T08:24:45.468Z,5.03
2022-11-28T08:27:14.531Z,4.55
2022-11-28T08:29:46.107Z,5.10
2022-11-28T08:32:15.938Z,5.13
2022-11-28T08:34:43.701Z,4.97
2022-11-28T08:37:11.344Z,4.75
2022-11-28T08:39:39.154Z,4.72
2022-11-28T08:42:06.830Z,4.40
2022-11-28T08:44:34.465Z,4.30
2022-11-28T08:47:03.678Z,5.90
2022-11-28T08:49:31.243Z,6.10
2022-11-28T08:51:58.924Z,4.78
2022-11-28T08:54:26.704Z,5.30
2022-11-28T08:56:54.263Z,5.35
2022-11-28T08:59:22.106Z,5.80
2022-11-28T09:01:49.919Z,5.22
2022-11-28T09:04:18.978Z,5.03
2022-11-28T09:06:46.758Z,5.47
2022-11-28T09:09:14.602Z,5.65
2022-11-28T09:11:42.780Z,4.90
2022-11-28T09:14:10.389Z,5.63
2022-11-28T09:16:39.467Z,6.15
2022-11-28T09:19:09.128Z,6.90
2022-11-28T09:21:39.007Z,6.32
2022-11-28T09:24:08.012Z,6.03
2022-11-28T09:26:35.599Z,5.57
2022-11-28T09:29:03.610Z,5.97
2022-11-28T09:31:31.655Z,5.60
2022-11-28T09:33:59.342Z,5.43
2022-11-28T09:36:28.698Z,5.80
2022-11-28T09:39:00.124Z,5.25
2022-11-28T09:41:51.445Z,5.63
2022-11-28T09:44:23.481Z,4.90
2022-11-28T09:46:53.796Z,5.47
2022-11-28T09:49:30.751Z,5.40
2022-11-28T09:52:03.909Z,6.07
2022-11-28T09:54:41.504Z,6.78
2022-11-28T09:57:14.941Z,6.57
2022-11-28T09:59:42.793Z,6.57
2022-11-28T10:02:24.552Z,5.95
2022-11-28T10:05:02.051Z,6.38
2022-11-28T10:07:41.121Z,6.22
2022-11-28T10:10:22.818Z,6.27
2022-11-28T10:13:01.298Z,5.80
2022-11-28T10:15:38.472Z,6.13
2022-11-28T10:18:23.831Z,5.75
2022-11-28T10:20:56.428Z,6.55
2022-11-28T10:23:27.058Z,5.57
2022-11-28T10:25:58.687Z,5.80
2022-11-28T10:28:34.438Z,6.78
2022-11-28T10:31:08.066Z,6.68
2022-11-28T10:33:42.495Z,6.05
2022-11-28T10:36:17.345Z,5.70
2022-11-28T10:38:45.405Z,6.25
2022-11-28T10:41:19.656Z,5.65
2022-11-28T10:43:55.267Z,5.32
2022-11-28T10:46:36.612Z,5.45
2022-11-28T10:49:18.234Z,5.43
2022-11-28T10:51:54.724Z,6.45
2022-11-28T10:54:33.242Z,5.85
2022-11-28T10:57:10.549Z,5.05
2022-11-28T10:59:54.064Z,6.18
2022-11-28T11:02:23.394Z,5.90
2022-11-28T11:04:51.255Z,5.82
2022-11-28T11:07:29.555Z,5.38
2022-11-28T11:10:01.146Z,5.47
2022-11-28T11:12:33.170Z,5.78
2022-11-28T11:15:16.873Z,5.93
2022-11-28T11:17:44.744Z,5.85
2022-11-28T11:20:32.476Z,5.55
2022-11-28T11:23:02.209Z,5.43
2022-11-28T11:25:32.441Z,6.18
2022-11-28T11:28:05.283Z,6.27
2022-11-28T11:30:35.977Z,5.85
2022-11-28T11:33:07.034Z,5.22
2022-11-28T11:35:37.695Z,6.15
2022-11-28T11:38:27.406Z,6.28
2022-11-28T11:40:55.083Z,7.43
2022-11-28T11:43:27.909Z,6.63
2022-11-28T11:46:09.821Z,5.32
2022-11-28T11:48:40.270Z,11.00
2022-11-28T11:51:09.208Z,6.13
2022-11-28T11:53:37.009Z,5.97
2022-11-28T11:56:05.557Z,6.22
2022-11-28T11:58:42.528Z,5.72
2022-11-28T12:01:13.183Z,6.18
2022-11-28T12:03:43.881Z,5.60
2022-11-28T12:06:15.592Z,5.30
2022-11-28T12:08:48.945Z,6.20
2022-11-28T12:11:21.180Z,6.40
2022-11-28T12:13:51.500Z,5.32
2022-11-28T12:16:42.495Z,5.80
2022-11-28T12:19:22.741Z,5.90
2022-11-28T12:22:03.913Z,5.63
2022-11-28T12:24:38.672Z,6.38
2022-11-28T12:27:11.977Z,6.72
2022-11-28T12:29:52.087Z,7.20
2022-11-28T12:32:33.487Z,6.40
2022-11-28T12:35:14.168Z,8.77
2022-11-28T12:38:10.154Z,8.30
2022-11-28T12:40:49.766Z,6.57
2022-11-28T12:43:33.275Z,6.55
2022-11-28T12:46:08.150Z,5.90
2022-11-28T12:48:53.628Z,4.65
2022-11-28T12:51:47.287Z,4.80
2022-11-28T12:54:47.327Z,5.10
2022-11-28T12:57:23.768Z,6.13
2022-11-28T13:00:00.043Z,6.37
2022-11-28T13:02:40.088Z,5.90
2022-11-28T13:05:24.353Z,6.88
2022-11-28T13:08:16.788Z,6.75
2022-11-28T13:10:50.651Z,6.65
2022-11-28T13:13:24.799Z,6.37
2022-11-28T13:16:03.490Z,7.07
2022-11-28T13:18:41.221Z,6.00
2022-11-28T13:21:20.511Z,5.20
